This is the latest recevied weather packets stored in our database for station/object N8BAP. If no packets are shown the sender has not sent any weather packets the latest 10 day(s).
| Time | Temp. | Humidity | Pressure | Rain* | Wind** | Luminosity | Snow |
|---|---|---|---|---|---|---|---|
| 1788489881 | 26.11° C | 82% | 1021.6 hPa | 0 mm | - | 0 W/m² | - |
| 1788489577 | 26.11° C | 82% | 1021.6 hPa | 0 mm | - | 0 W/m² | - |
| 1788489273 | 25.56° C | 83% | 1021.5 hPa | 0 mm | - | 0 W/m² | - |
| 1788488972 | 25.56° C | 85% | 1021.5 hPa | 0 mm | - | 0 W/m² | - |
| 1788488669 | 25° C | 86% | 1021.3 hPa | 0 mm | - | 0 W/m² | - |
| 1788488365 | 25° C | 87% | 1021.7 hPa | 0 mm | - | 0 W/m² | - |
| 1788488061 | 25° C | 88% | 1021.5 hPa | 0 mm | - | 0 W/m² | - |
| 1788487755 | 24.44° C | 91% | 1021.6 hPa | 0 mm | - | 0 W/m² | - |
| 1788487450 | 24.44° C | 91% | 1021.6 hPa | 0 mm | - | 0 W/m² | - |
| 1788487149 | 24.44° C | 90% | 1021.6 hPa | 0 mm | - | 0 W/m² | - |
| 1788486845 | 24.44° C | 90% | 1021.8 hPa | 0 mm | - | 0 W/m² | - |
| 1788486543 | 24.44° C | 90% | 1021.8 hPa | 0 mm | - | 0 W/m² | - |
| 1788486239 | 25° C | 89% | 1021.6 hPa | 0 mm | - | 0 W/m² | - |
| 1788485942 | 25° C | 88% | 1021.7 hPa | 0 mm | - | 0 W/m² | - |
| 1788485630 | 25° C | 87% | 1021.4 hPa | 0 mm | - | 0 W/m² | - |
| 1788485326 | 25.56° C | 85% | 1021.3 hPa | 0 mm | - | 0 W/m² | - |
| 1788485020 | 26.11° C | 83% | 1021.8 hPa | 0 mm | - | 0 W/m² | - |
| 1788484719 | 26.67° C | 80% | 1021.4 hPa | 0 mm | - | 0 W/m² | - |
| 1788484415 | 26.67° C | 80% | 1021.6 hPa | 0 mm | - | 0 W/m² | - |
| 1788484110 | 26.11° C | 81% | 1021.4 hPa | 0 mm | - | 0 W/m² | - |
| 1788483807 | 26.11° C | 82% | 1021.6 hPa | 0 mm | - | 0 W/m² | - |
| 1788483501 | 26.11° C | 83% | 1021.4 hPa | 0 mm | - | 0 W/m² | - |
| 1788483197 | 26.11° C | 85% | 1021.4 hPa | 0 mm | - | 0 W/m² | - |
| 1788482891 | 26.11° C | 84% | 1021.2 hPa | 0 mm | - | 0 W/m² | - |
| 1788482588 | 26.11° C | 84% | 1021.4 hPa | 0 mm | - | 0 W/m² | - |
* Rain latest hour (hover to see other rain measurements)
** Current wind speed in m/s (hover to see current wind gust speed)